Thruxton BSB: Sunday times and race results

Local rider, Martin Jessopp
Local rider, Martin Jessopp Picture: Impact Images

MCE British Superbikes race two - conditions dry

1 60 Peter HICKMAN GBR BMW - Smiths Racing 18 22:46.021 111.76 1:15.290 4

2 27 Jake DIXON GBR Kawasaki - RAF Regular & Reserve Kawasaki 18 22:52.065 6.044 6.044 111.26 1:15.227 3

3 91 Leon HASLAM GBR Kawasaki - JG Speedfit Kawasaki 18 22:57.248 11.227 5.183 110.85 1:15.179 3

4 24 Christian IDDON GBR BMW - Tyco BMW Motorrad 18 22:57.488 11.467 0.240 110.83 1:15.414 3

5 22 Jason O’HALLORAN GBR Honda - Honda Racing 18 23:00.992 14.971 3.504 110.55 1:15.294 2

6 40 Martin JESSOPP GBR BMW - RidersMotorcycles.com BMW 18 23:04.526 18.505 3.534 110.26 1:15.927 3

7 14 Lee JACKSON GBR BMW - Smiths Racing 18 23:04.621 18.600 0.095 110.26 1:15.609 2

8 50 Sylvain GUINTOLI FRA Suzuki - Bennetts Suzuki 18 23:05.220 19.199 0.599 110.21 1:15.694 2

9 77 James ELLISON GBR Yamaha - McAMS Yamaha 18 23:05.533 19.512 0.313 110.18 1:15.781 3

10 96 Jakub SMRZ CZE BMW - Lloyd & Jones PR Racing BMW 18 23:05.746 19.725 0.213 110.17 1:16.036 3

11 2 * Glenn IRWIN GBR Ducati - Be Wiser Ducati Racing Team 18 23:05.960 19.939 0.214 110.15 1:15.912 2

12 4 Dan LINFOOT GBR Honda - Honda Racing 18 23:07.651 21.630 1.691 110.01 1:15.566 3

13 7 Michael LAVERTY GBR Yamaha - McAMS Yamaha 18 23:07.878 21.857 0.227 110.00 1:15.985 3

14 46 Tommy BRIDEWELL GBR Kawasaki - Team WD-40 18 23:12.834 26.813 4.956 109.61 1:16.036 3

15 5 James WESTMORELAND GBR Kawasaki - Gearlink Kawasaki 18 23:17.829 31.808 4.995 109.21 1:16.083 3

16 18 Andy REID GBR BMW - Tyco BMW Motorrad 18 23:22.511 36.490 4.682 108.85 1:16.192 5

17 8 Shaun WINFIELD GBR Yamaha - Anvil Hire TAG Racing 18 23:37.421 51.400 14.910 107.70 1:15.755 3

NOT CLASSIFIED

DNF 25 Josh BROOKES AUS Yamaha - Anvil Hire TAG Racing 16 20:12.659 2 Laps 2 Laps 111.90 1:15.266 7

DNF 67 Shane BYRNE GBR Ducati - Be Wiser Ducati Racing Team 15 19:16.388 3 Laps 1 Lap 110.01 1:14.845 2

DNF 21 John HOPKINS USA Ducati - Moto Rapido 13 16:47.200 5 Laps 2 Laps 109.47 1:15.457 4

DNF 28 Bradley RAY GBR Suzuki - Buildbase Suzuki 3 3:52.008 15 Laps 10 Laps 109.67 1:15.533 3

DNF 64 Aaron ZANOTTI GBR Yamaha - Platform Hire Yamaha 3 4:02.173 15 Laps 10.165 105.06 1:16.786 2

DNF 11 Michael RUTTER GBR BMW - Bathams SMT 1 1:23.963 17 Laps 2 Laps 101.01


MCE British Superbikes race one - conditions dry

1 25 Josh BROOKES AUS Yamaha - Anvil Hire TAG Racing 18 24:56.104 102.04 1:15.139 8

2 60 Peter HICKMAN GBR BMW - Smiths Racing 18 24:57.130 1.026 1.026 101.97 1:15.017 9

3 27 Jake DIXON GBR Kawasaki - RAF Regular & Reserve Kawasaki 18 24:57.878 1.774 0.748 101.92 1:15.115 10

4 67 Shane BYRNE GBR Ducati - Be Wiser Ducati Racing Team 18 24:58.409 2.305 0.531 101.88 1:15.078 9

5 24 Christian IDDON GBR BMW - Tyco BMW Motorrad 18 25:01.708 5.604 3.299 101.66 1:15.509 9

6 22 Jason O’HALLORAN GBR Honda - Honda Racing 18 25:02.901 6.797 1.193 101.58 1:15.167 9

7 91 Leon HASLAM GBR Kawasaki - JG Speedfit Kawasaki 18 25:03.030 6.926 0.129 101.57 1:15.350 10

8 28 Bradley RAY GBR Suzuki - Buildbase Suzuki 18 25:08.523 12.419 5.493 101.20 1:15.791 10

9 21 John HOPKINS USA Ducati - Moto Rapido 18 25:08.529 12.425 0.006 101.20 1:15.645 10

10 50 Sylvain GUINTOLI FRA Suzuki - Bennetts Suzuki 18 25:09.098 12.994 0.569 101.16 1:16.031 9

11 40 Martin JESSOPP GBR BMW - RidersMotorcycles.com BMW 18 25:14.371 18.267 5.273 100.81 1:16.441 12

12 96 Jakub SMRZ CZE BMW - Lloyd & Jones PR Racing BMW 18 25:14.528 18.424 0.157 100.80 1:16.153 8

13 6 Taylor MACKENZIE GBR Suzuki - Bennetts Suzuki 18 25:14.654 18.550 0.126 100.79 1:16.275 9

14 14 Lee JACKSON GBR BMW - Smiths Racing 18 25:16.456 20.352 1.802 100.67 1:15.839 9

15 4 Dan LINFOOT GBR Honda - Honda Racing 18 25:16.838 20.734 0.382 100.64 1:15.791 9

16 46 Tommy BRIDEWELL GBR Kawasaki - Team WD-40 18 25:17.036 20.932 0.198 100.63 1:16.450 9

17 18 Andy REID GBR BMW - Tyco BMW Motorrad 18 25:17.248 21.144 0.212 100.62 1:16.456 9

18 5 James WESTMORELAND GBR Kawasaki - Gearlink Kawasaki 18 25:17.471 21.367 0.223 100.60 1:16.225 9

19 77 James ELLISON GBR Yamaha - McAMS Yamaha 18 25:17.620 21.516 0.149 100.59 1:16.001 9

20 2 Glenn IRWIN GBR Ducati - Be Wiser Ducati Racing Team 18 25:18.331 22.227 0.711 100.55 1:16.022 13

21 7 Michael LAVERTY GBR Yamaha - McAMS Yamaha 18 25:18.509 22.405 0.178 100.53 1:16.441 10

22 8 Shaun WINFIELD GBR Yamaha - Anvil Hire TAG Racing 18 25:35.556 39.452 17.047 99.42 1:16.663 8

NOT CLASSIFIED

DNF 11 Michael RUTTER GBR BMW - Bathams SMT 16 22:48.805 2 Laps 2 Laps 99.14 1:16.015 10

DNF 33 Michael DUNLOP GBR Suzuki - Buildbase Suzuki 10 15:10.380 8 Laps 6 Laps 93.16 1:18.403 9

DNF 64 Aaron ZANOTTI GBR Yamaha - Platform Hire Yamaha 2 3:00.131 16 Laps 8 Laps 94.17

DNF 3 Billy McCONNELL AUS Kawasaki - Quattro Plant FS-3 Racing Kawasaki 1 1:23.344 17 Laps 1 Lap 101.76

MCE British Superbikes warm up - conditions dry

1 67 Shane BYRNE GBR Ducati - Be Wiser Ducati Racing Team 1:15.063 2 8 112.99

2 27 Jake DIXON GBR Kawasaki - RAF Regular & Reserve Kawasaki 1:15.197 8 8 0.134 0.134 112.79

3 25 Josh BROOKES AUS Yamaha - Anvil Hire TAG Racing 1:15.197 3 12 0.134 0.000 112.79

4 40 Martin JESSOPP GBR BMW - RidersMotorcycles.com BMW 1:15.308 2 9 0.245 0.111 112.62

5 91 Leon HASLAM GBR Kawasaki - JG Speedfit Kawasaki 1:15.508 2 12 0.445 0.200 112.32

6 28 Bradley RAY GBR Suzuki - Buildbase Suzuki 1:15.523 2 9 0.460 0.015 112.30

7 60 Peter HICKMAN GBR BMW - Smiths Racing 1:15.531 3 11 0.468 0.008 112.29

8 24 Christian IDDON GBR BMW - Tyco BMW Motorrad 1:15.551 2 12 0.488 0.020 112.26

9 2 Glenn IRWIN GBR Ducati - Be Wiser Ducati Racing Team 1:15.690 11 11 0.627 0.139 112.05

10 77 James ELLISON GBR Yamaha - McAMS Yamaha 1:15.718 10 11 0.655 0.028 112.01

11 4 Dan LINFOOT GBR Honda - Honda Racing 1:15.806 2 12 0.743 0.088 111.88

12 21 John HOPKINS USA Ducati - Moto Rapido 1:15.840 4 10 0.777 0.034 111.83

13 96 Jakub SMRZ CZE BMW - Lloyd & Jones PR Racing BMW 1:16.026 10 11 0.963 0.186 111.56

14 11 Michael RUTTER GBR BMW - Bathams SMT 1:16.032 2 11 0.969 0.006 111.55

15 50 Sylvain GUINTOLI FRA Suzuki - Bennetts Suzuki 1:16.107 3 11 1.044 0.075 111.44

16 46 Tommy BRIDEWELL GBR Kawasaki - Team WD-40 1:16.107 3 9 1.044 0.000 111.44

17 22 Jason O’HALLORAN GBR Honda - Honda Racing 1:16.216 4 8 1.153 0.109 111.28

18 64 Aaron ZANOTTI GBR Yamaha - Platform Hire Yamaha 1:16.395 2 7 1.332 0.179 111.02

19 14 Lee JACKSON GBR BMW - Smiths Racing 1:16.433 2 10 1.370 0.038 110.96

20 7 Michael LAVERTY GBR Yamaha - McAMS Yamaha 1:16.579 3 9 1.516 0.146 110.75

21 5 James WESTMORELAND GBR Kawasaki - Gearlink Kawasaki 1:16.634 8 12 1.571 0.055 110.67

22 18 Andy REID GBR BMW - Tyco BMW Motorrad 1:16.881 4 10 1.818 0.247 110.32

23 6 Taylor MACKENZIE GBR Suzuki - Bennetts Suzuki 1:16.985 2 11 1.922 0.104 110.17

24 3 Billy McCONNELL AUS Kawasaki - Quattro Plant FS-3 Racing Kawasaki 1:17.500 6 9 2.437 0.515 109.44

25 8 Shaun WINFIELD GBR Yamaha - Anvil Hire TAG Racing 1:17.911 9 9 2.848 0.411 108.86

26 33 Michael DUNLOP GBR Suzuki - Buildbase Suzuki 1:18.913 6 7 3.850 1.002 107.48

Dickies British Supersport race - conditions dry

1 34 I 1 Alastair SEELEY Spirit Moto2 - Team Quattro Spirit 12 15:35.587 108.78 1:17.308 12

2 4 1 Jack KENNEDY MV Agusta - Tempus Magazine MV Agusta 12 15:37.460 1.873 1.873 108.56 1:17.480 6

3 33 2 Keith FARMER Yamaha - Appleyard Macadam with Integro 12 15:37.607 2.020 0.147 108.55 1:17.513 3

4 22 3 Eemeli LAHTI Suzuki - 777RR HRP Suzuki 12 15:37.694 2.107 0.087 108.54 1:17.381 12

5 8 4 Andrew IRWIN Kawasaki - Gearlink Kawasaki 12 15:37.766 2.179 0.072 108.53 1:17.365 11

6 75 5 Jamie PERRIN Yamaha - Slidecodor - GO Racing Developments 12 15:37.913 2.326 0.147 108.51 1:17.517 7

7 61 6 Benjamin CURRIE Kawasaki - Gearlink Kawasaki 12 15:42.637 7.050 4.724 107.97 1:17.598 8

8 15 7 Ross TWYMAN Yamaha - EHA Racing 12 15:42.699 7.112 0.062 107.96 1:17.565 3

9 95 8 David ALLINGHAM Yamaha - EHA Racing 12 15:43.570 7.983 0.871 107.86 1:17.658 3

10 59 9 Matt TRUELOVE Yamaha - Astro-TT Racing 12 15:45.057 9.470 1.487 107.69 1:17.644 2

11 27 * 10 Bjorn ESTMENT Yamaha - Everquip Racing 12 15:45.645 10.058 0.588 107.62 1:17.699 11

12 2 11 Tom WARD Yamaha - Aero Legends / Go Racing Developments 12 15:48.509 12.922 2.864 107.30 1:17.627 3

13 35 12 Sam WILFORD Yamaha - IDWe Racing 12 15:52.182 16.595 3.673 106.89 1:18.344 3

14 6 I 2 Joe COLLIER Speed Up Moto2 - FAB Racing 12 15:52.295 16.708 0.113 106.87 1:18.236 3

15 67 13 Arthur SISSIS Yamaha - McAMS Yamaha 12 15:52.540 16.953 0.245 106.85 1:18.343 3

16 66 14 Kurt WIGLEY Yamaha - Sorrymate.com 12 15:52.809 17.222 0.269 106.82 1:18.038 2

17 69 15 Ryan DIXON Yamaha - Team Ixon Racing 12 15:58.775 23.188 5.966 106.15 1:18.660 3

18 31 16 Sam COX Yamaha - Echelon / F3 Group 12 16:08.931 33.344 10.156 105.04 1:18.802 2

19 7 17 Kevin van LEUVAN Kawasaki - G & S Racing Kawasaki 12 16:11.595 36.008 2.664 104.75 1:19.747 4

20 3 STK6 1 Mark CLAYTON Kawasaki - KSM Racing 12 16:11.716 36.129 0.121 104.74 1:19.980 3

21 52 18 Tommy PHILP Yamaha - Draper Racing 12 16:12.009 36.422 0.293 104.71 1:19.988 3

22 45 19 Ed PEAD Yamaha - Ed Pead 12 16:31.228 55.641 19.219 102.67 1:20.806 3

NOT CLASSIFIED

DNF 11 Harry TRUELOVE Yamaha - Astro-TT Racing 7 9:22.292 5 Laps 5 Laps 105.58 1:18.402 3

DNF 40 Joe FRANCIS Yamaha - Halsall Racing 6 7:50.697 6 Laps 1 Lap 108.11 1:17.330 2

Pirelli National Superstock 1000 race - conditions dry

1 47 Richard COOPER Suzuki - Bennetts Suzuki 8 10:23.498 108.82 1:16.900 2

2 2 Adam JENKINSON BMW - Northern Escalator Installations 8 10:23.581 0.083 0.083 108.81 1:16.917 2

3 83 Danny BUCHAN Kawasaki - Morello Racing Kawasaki 8 10:23.716 0.218 0.135 108.78 1:17.106 2

4 4 Michael RUTTER BMW - Bathams SMT 8 10:24.064 0.566 0.348 108.72 1:17.222 2

5 11 Alex OLSEN Suzuki - Buildbase Suzuki 8 10:25.202 1.704 1.138 108.52 1:17.099 4

6 10 Josh ELLIOTT BMW - Tyco BMW Motorrad 8 10:25.527 2.029 0.325 108.47 1:16.884 2

7 69 Chrissy ROUSE BMW - Mission Racing 8 10:25.584 2.086 0.057 108.46 1:17.014 2

8 43 James RISPOLI Kawasaki - Quattro Plant FS-3 Racing Kawasaki 8 10:26.953 3.455 1.369 108.22 1:17.655 2

9 89 Fraser ROGERS Kawasaki - Morello Racing Kawasaki 8 10:29.332 5.834 2.379 107.81 1:17.711 2

10 32 Carl PHILLIPS Suzuki - MD Racing 8 10:29.495 5.997 0.163 107.78 1:17.700 2

11 20 Mason LAW Kawasaki - STAUFF Connect Academy 8 10:29.627 6.129 0.132 107.76 1:17.513 2

12 15 David JOHNSON BMW - Four Anjels Racing 8 10:33.875 10.377 4.248 107.04 1:18.229 3

13 12 Luke HEDGER Aprilia - EHA Racing Aprilia UK 8 10:34.001 10.503 0.126 107.02 1:17.977 3

14 74 Dean HIPWELL BMW - CDH Racing 8 10:34.267 10.769 0.266 106.97 1:18.177 3

15 5 Josh DAY Kawasaki - NG Road Racing 8 10:34.992 11.494 0.725 106.85 1:18.040 2

16 88 Ashley BEECH BMW - Jones Dorling Racing 8 10:35.895 12.397 0.903 106.70 1:18.176 7

17 22 Barry TEASDALE BMW - Bob Henderson Racing 8 10:36.282 12.784 0.387 106.63 1:18.537 3

18 30 Rob McNEALY BMW - McNealy Brown ltd 8 10:36.844 13.346 0.562 106.54 1:18.382 7

19 16 Benjamin GODFREY Suzuki - CPE Motorsport 8 10:37.135 13.637 0.291 106.49 1:17.752 2

20 59 Sam COVENTRY BMW - Lloyd & Jones PR Racing BMW 8 10:38.027 14.529 0.892 106.34 1:18.360 6

21 21 Tom TUNSTALL BMW - Integro 8 10:39.558 16.060 1.531 106.09 1:18.679 6

22 51 Brayden ELLIOTT Yamaha - PacedayZ Trackdays 8 10:41.014 17.516 1.456 105.85 1:18.823 6

23 64 Ashley BUXTON Kawasaki - Right Gear Racing 8 10:41.152 17.654 0.138 105.82 1:18.801 4

24 8 Lewis ROLLO Kawasaki - MSS Performance 8 10:41.784 18.286 0.632 105.72 1:17.805 2

25 55 Leon JEACOCK Suzuki - Geo E Davies Racing 8 10:41.928 18.430 0.144 105.70 1:18.775 2

26 63 James WHITE Kawasaki - Team Afterdark 8 10:42.309 18.811 0.381 105.63 1:19.041 2

27 7 Dominic USHER BMW - ONE7R / Formwise 8 10:42.778 19.280 0.469 105.56 1:18.674 3

28 45 Tom FISHER Kawasaki - G & S Racing Kawasaki 8 10:42.938 19.440 0.160 105.53 1:19.179 3

29 96 Phil WAKEFIELD BMW - PWR 8 10:47.532 24.034 4.594 104.78 1:19.715 3

30 33 Darren IBBERTSON BMW - I.M.S Racing 8 11:02.809 39.311 15.277 102.37 1:20.922 2

31 98 Rick DICKINSON Kawasaki - Rick Dickinson 8 11:03.521 40.023 0.712 102.26 1:21.585 2

NOT CLASSIFIED

DNF 36 Sam CLARKE Yamaha - PacedayZ Trackdays 3 3:58.447 5 Laps 5 Laps 106.71 1:17.686 2

Pirelli National Superstock 1000 warm up - conditions dry

1 2 Adam JENKINSON BMW - Northern Escalator Installations 1:16.971 3 6 110.19

2 47 Richard COOPER Suzuki - Bennetts Suzuki 1:17.268 3 5 0.297 0.297 109.76

3 16 Benjamin GODFREY Suzuki - CPE Motorsport 1:17.710 3 6 0.739 0.442 109.14

4 4 Michael RUTTER BMW - Bathams SMT 1:17.730 5 7 0.759 0.020 109.11

5 83 Danny BUCHAN Kawasaki - Morello Racing Kawasaki 1:17.853 2 6 0.882 0.123 108.94

6 36 Sam CLARKE Yamaha - PacedayZ Trackdays 1:17.874 4 6 0.903 0.021 108.91

7 15 David JOHNSON BMW - Four Anjels Racing 1:17.880 2 6 0.909 0.006 108.90

8 43 James RISPOLI Kawasaki - Quattro Plant FS-3 Racing Kawasaki 1:17.977 4 6 1.006 0.097 108.77

9 20 Mason LAW Kawasaki - STAUFF Connect Academy 1:17.993 5 6 1.022 0.016 108.74

10 12 Luke HEDGER Aprilia - EHA Racing Aprilia UK 1:18.034 5 7 1.063 0.041 108.69

11 69 Chrissy ROUSE BMW - Mission Racing 1:18.067 4 7 1.096 0.033 108.64

12 10 Josh ELLIOTT BMW - Tyco BMW Motorrad 1:18.079 3 6 1.108 0.012 108.62

13 89 Fraser ROGERS Kawasaki - Morello Racing Kawasaki 1:18.109 3 6 1.138 0.030 108.58

14 11 Alex OLSEN Suzuki - Buildbase Suzuki 1:18.120 4 6 1.149 0.011 108.57

15 5 Josh DAY Kawasaki - NG Road Racing 1:18.121 4 6 1.150 0.001 108.57

16 21 Tom TUNSTALL BMW - Integro 1:18.169 6 6 1.198 0.048 108.50

17 32 Carl PHILLIPS Suzuki - MD Racing 1:18.285 4 6 1.314 0.116 108.34

18 88 Ashley BEECH BMW - Jones Dorling Racing 1:18.670 5 6 1.699 0.385 107.81

19 74 Dean HIPWELL BMW - CDH Racing 1:18.702 4 7 1.731 0.032 107.76

20 55 Leon JEACOCK Suzuki - Geo E Davies Racing 1:18.717 3 6 1.746 0.015 107.74

21 8 Lewis ROLLO Kawasaki - MSS Performance 1:18.730 5 7 1.759 0.013 107.73

22 22 Barry TEASDALE BMW - Bob Henderson Racing 1:18.815 4 6 1.844 0.085 107.61

23 7 Dominic USHER BMW - ONE7R / Formwise 1:18.880 5 6 1.909 0.065 107.52

24 59 Sam COVENTRY BMW - Lloyd & Jones PR Racing BMW 1:19.456 4 6 2.485 0.576 106.74

25 96 Phil WAKEFIELD BMW - PWR 1:19.463 5 6 2.492 0.007 106.73

26 45 Tom FISHER Kawasaki - G & S Racing Kawasaki 1:19.506 4 6 2.535 0.043 106.67

27 63 James WHITE Kawasaki - Team Afterdark 1:19.538 6 6 2.567 0.032 106.63

28 30 Rob McNEALY BMW - McNealy Brown ltd 1:19.557 4 6 2.586 0.019 106.61

29 64 Ashley BUXTON Kawasaki - Right Gear Racing 1:19.598 4 6 2.627 0.041 106.55

30 51 Brayden ELLIOTT Yamaha - PacedayZ Trackdays 1:19.657 6 6 2.686 0.059 106.47

31 34 Jordan WEAVING Kawasaki - Briggs Equipment Kawasaki 1:20.472 5 6 3.501 0.815 105.39

32 33 Darren IBBERTSON BMW - I.M.S Racing 1:21.412 3 6 4.441 0.940 104.18

33 98 Rick DICKINSON Kawasaki - Rick Dickinson 1:22.226 3 6 5.255 0.814 103.15

34 903 Mark FINCHAM BMW - True Heroes Racing / Laguna 1:22.521 2 6 5.550 0.295 102.78

35 90 Jim WALKER Kawasaki - True Heroes Racing / Laguna 1:23.831 4 6 6.860 1.310 101.17

36 46 Daryl DANCE Yamaha - 2 Brothers Scaffolding / DMP Performance 1:24.210 3 4 7.239 0.379 100.71

Pirelli National Superstock 600 race - conditions dry

1 24 Jordan GILBERT Yamaha - Mission Racing 14 19:23.726 102.03 1:19.230 4

2 51 George STANLEY Kawasaki - BWSR 14 19:24.065 0.339 0.339 102.00 1:19.058 10

3 20 Tom OLIVER Yamaha - SGR Racing 14 19:24.461 0.735 0.396 101.97 1:18.814 5

4 80 Dan STAMPER Yamaha - Allied Racing 14 19:24.507 0.781 0.046 101.96 1:19.113 2

5 12 Brad JONES Yamaha - Appleyard Macadam with Integro 14 19:24.660 0.934 0.153 101.95 1:18.963 11

6 41 Milo WARD Kawasaki - MWR Racing 14 19:24.978 1.252 0.318 101.92 1:18.910 4

7 50 Sam THOMPSON Kawasaki - Thompson Racing 14 19:25.140 1.414 0.162 101.91 1:19.250 10

8 21 Ryan VICKERS Yamaha - Team Vickers 14 19:25.887 2.161 0.747 101.84 1:19.175 4

9 14 Tim NEAVE Kawasaki - Chalk Racing Neave Twins 14 19:27.101 3.375 1.214 101.74 1:19.354 10

10 97 Bradley PERIE Yamaha - Diamond H Racing 14 19:27.573 3.847 0.472 101.70 1:19.025 10

11 47 Robert KENNEDY Kawasaki - Team Sandown 14 19:29.673 5.947 2.100 101.51 1:19.476 4

12 9 Ben LUXTON Kawasaki - CNC Routing 14 19:29.919 6.193 0.246 101.49 1:19.701 10

13 19 Aaron CLIFFORD Kawasaki - Clifford Racing 14 19:30.055 6.329 0.136 101.48 1:19.271 10

14 3 Mark CLAYTON Kawasaki - KSM Racing 14 19:31.843 8.117 1.788 101.32 1:19.810 10

15 30 Liam SHELLCOCK Triumph - Tralee Bay Holidays 14 19:32.303 8.577 0.460 101.28 1:19.850 10

16 34 Daniel DRAYTON Kawasaki - Drayton Racing 14 19:39.878 16.152 7.575 100.63 1:20.647 9

17 5 * Aaron CLARKE Yamaha - Draper Racing 14 19:39.642 100.65 1:20.232 5

18 58 * Cameron LEE Yamaha - Allied Racing 14 19:39.839 100.64 1:20.414 10

19 71 Max SYMONDS Kawasaki - Max Symonds Racing 14 19:40.338 16.612 100.60 1:20.163 5

20 55 Kevin KEYES Kawasaki - Team #109 14 19:40.499 16.773 0.161 100.58 1:20.922 10

21 22 Alex BAKER Yamaha - BBR Racing 14 19:40.652 16.926 0.153 100.57 1:20.662 11

22 75 Ozzy MADEY Kawasaki - Madey Racing 14 19:42.853 19.127 2.201 100.38 1:21.095 13

23 6 Louis DAWSON Yamaha - Ducati Wolverhampton 14 19:43.453 19.727 0.600 100.33 1:21.051 3

24 4 Louis VALLELEY Kawasaki - Lou Racing 14 19:47.359 23.633 3.906 100.00 1:21.601 5

25 72 Harry BLADES Kawasaki - Blades Racing 14 19:47.764 24.038 0.405 99.97 1:21.659 3

26 32 Mark PIPER Yamaha - Pied Piper Racing 14 19:47.837 24.111 0.073 99.96 1:21.358 10

27 26 Grant NEWSTEAD Yamaha - Team Tinklers 14 19:48.023 24.297 0.186 99.94 1:21.632 13

28 39 Thomas BURNETT Yamaha - Satchwell Racing 14 19:52.875 29.149 4.852 99.54 1:21.976 12

29 27 Jamie ASHBY Kawasaki - JPA Racing / Davison Transport 14 19:55.944 32.218 3.069 99.28 1:23.050 5

30 7 Robert CHILDS Yamaha - JRC Racing 14 19:56.087 32.361 0.143 99.27 1:22.760 5

NOT CLASSIFIED

DNF 11 James NAGY Kawasaki - STEELMATE Racing 13 18:28.290 1 Lap 1 Lap 99.48 1:20.856 2

DNF 63 Nico CIPRIANO Yamaha - Nico Cipriano 13 18:39.502 1 Lap 11.212 98.49 1:23.640 11

DNF 29 Charlie OAKLAND Kawasaki - Ducati Wolverhampton / Austin Motorcyc 8 12:18.088 6 Laps 5 Laps 91.93 1:26.588 2

DNF 68 Tom NEAVE Kawasaki - Chalk Racing Neave Twins 0

DNF 49 James ALDERSON Triumph - R Alderson & Sons Racing 0

HEL Performance British Motostar warm up - conditions dry

1 69 1 Tom BOOTH-AMOS KTM - City Lifting RS Racing 1:20.903 6 6 104.83

2 47 2 Jake ARCHER KTM - City Lifting RS Racing 1:20.926 6 6 0.023 0.023 104.80

3 15 3 Eugene McMANUS KTM - RS Racing / E15 Racing 1:20.941 6 6 0.038 0.015 104.78

4 12 4 Edward RENDELL KTM - Banks Racing 1:21.231 6 6 0.328 0.290 104.41

5 25 5 Mike BROUWERS KTM - TEC7-Joma / Brouwersracingteam 1:21.386 6 6 0.483 0.155 104.21

6 3 6 Richard KERR KTM - North West Racing 1:21.600 6 6 0.697 0.214 103.94

7 17 7 Tom CARNE Tigcraft - Neatafan / Tigcraft Racing 1:21.643 5 6 0.740 0.043 103.88

8 44 8 Edmund BEST KTM - SymCirrus Motorsport 1:22.012 3 6 1.109 0.369 103.41

9 19 S 1 Victor RODRIGUEZ Honda NSF - GA Competition 1:22.380 3 6 1.477 0.368 102.95

10 79 9 Storm STACEY Kalex - FPW Racing 1:22.449 5 6 1.546 0.069 102.87

11 2 S 2 Thomas STRUDWICK Honda NSF - Case Moto Rapido Moto3 1:22.732 5 6 1.829 0.283 102.51

12 34 10 Liam DELVES DR-Moto - Stauff Connect Academy / Dr-Moto 1:22.755 3 6 1.852 0.023 102.49

13 64 11 Asher DURHAM Mahindra - Microlise Cresswell Racing 1:22.793 4 5 1.890 0.038 102.44

14 30 S 3 Max COOK Honda NSF - Wilson Racing 1:22.847 5 6 1.944 0.054 102.37

15 20 12 Joel MARKLUND KTM - Marklund Solutions / SP125 1:22.852 5 6 1.949 0.005 102.37

16 52 13 Jorel BOERBOOM Kalex KTM - Fireplace Warehouse 1:23.229 5 6 2.326 0.377 101.90

17 56 S 4 Charlie ATKINS Honda NSF - Wilson Racing 1:23.374 5 6 2.471 0.145 101.72

18 23 14 Sam LLEWELLYN KTM - SymCirrus Motorsport 1:23.399 5 6 2.496 0.025 101.69

19 54 15 Sam BURMAN KTM - TeamWNT / Burman Racing 1:23.464 5 6 2.561 0.065 101.62

20 35 16 Elliot LODGE FTR - Spike Racing / SP125 1:23.509 5 6 2.606 0.045 101.56

21 99 17 Stephen CAMPBELL Honda - Campbell Racing 1:23.673 6 6 2.770 0.164 101.36

22 89 S 5 T. Fox MORETON Honda NSF - Banks Racing / Moto Engineering 1:23.675 5 6 2.772 0.002 101.36

23 27 18 Josh HODGE KTM - Team HPR 1:23.729 6 6 2.826 0.054 101.29

24 95 S 6 Ross TURNER Honda NSF - RedRat Racing 1:23.927 4 6 3.024 0.198 101.05

25 42 19 James HOBSON Mahindra - Microlise Cresswell Racing 1:24.375 6 6 3.472 0.448 100.52

26 55 S 7 Jack SCOTT Honda NSF - J J Racing 1:24.664 3 6 3.761 0.289 100.17

27 72 S 8 Cameron HORSMAN Honda NSF - Nova / FAB Racing 1:24.715 4 6 3.812 0.051 100.11

28 24 S 9 Shane FABER Honda NSF - SymCirrus Motorsport / Shane Faber Racing 1:26.079 3 6 5.176 1.364 98.53

29 45 S 10 Scott SWANN Honda NSF - Swann Racing 1:26.240 3 6 5.337 0.161 98.34

30 73 S 11 Luke HOPKINS Honda NSF - HM 1:26.361 4 6 5.458 0.121 98.21

31 13 S 12 Jacob CLARK Honda NSF - Wilson Racing 1:26.523 3 6 5.620 0.162 98.02

32 26 S 13 Scott OGDEN Honda NSF - Cresswell Racing 1:26.600 6 6 5.697 0.077 97.94

33 48 S 14 Ewan POTTER Honda NSF - 1:27.186 4 6 6.283 0.586 97.28

HEL Performance British Motostar race - conditions dry

1 47 1 Jake ARCHER KTM - City Lifting RS Racing 11 14:58.999 103.77 1:20.514 6

2 69 2 Tom BOOTH-AMOS KTM - City Lifting RS Racing 11 14:59.165 0.166 0.166 103.76 1:20.496 11

3 12 3 Edward RENDELL KTM - Banks Racing 11 14:59.980 0.981 0.815 103.66 1:20.598 5

4 3 4 Richard KERR KTM - North West Racing 11 15:00.103 1.104 0.123 103.65 1:20.928 6

5 79 5 Storm STACEY Kalex - FPW Racing 11 15:13.415 14.416 13.312 102.14 1:21.583 5

6 25 6 Mike BROUWERS KTM - TEC7-Joma / Brouwersracingteam 11 15:13.806 14.807 0.391 102.09 1:21.512 5

7 64 7 Asher DURHAM Mahindra - Microlise Cresswell Racing 11 15:15.446 16.447 1.640 101.91 1:22.093 5

8 23 8 Sam LLEWELLYN KTM - SymCirrus Motorsport 11 15:21.015 22.016 5.569 101.29 1:22.589 5

9 34 9 Liam DELVES DR-Moto - Stauff Connect Academy / Dr-Moto 11 15:22.419 23.420 1.404 101.14 1:22.525 5

10 30 S 1 Max COOK Honda NSF - Wilson Racing 11 15:22.721 23.722 0.302 101.11 1:22.785 4

11 27 10 Josh HODGE KTM - Team HPR 11 15:22.786 23.787 0.065 101.10 1:22.923 10

12 2 S 2 Thomas STRUDWICK Honda NSF - Case Moto Rapido Moto3 11 15:22.911 23.912 0.125 101.09 1:22.651 5

13 52 11 Jorel BOERBOOM Kalex KTM - Fireplace Warehouse 11 15:26.260 27.261 3.349 100.72 1:23.103 5

14 35 12 Elliot LODGE FTR - Spike Racing / SP125 11 15:26.473 27.474 0.213 100.70 1:23.045 7

15 19 S 3 Victor RODRIGUEZ Honda NSF - GA Competition 11 15:26.534 27.535 0.061 100.69 1:22.803 5

16 99 13 Stephen CAMPBELL Honda - Campbell Racing 11 15:26.775 27.776 0.241 100.66 1:22.683 4

17 55 S 4 Jack SCOTT Honda NSF - J J Racing 11 15:29.066 30.067 2.291 100.42 1:23.366 4

18 56 S 5 Charlie ATKINS Honda NSF - Wilson Racing 11 15:29.269 30.270 0.203 100.39 1:23.080 5

19 89 S 6 T. Fox MORETON Honda NSF - Banks Racing / Moto Engineering 11 15:30.518 31.519 1.249 100.26 1:23.362 4

20 54 14 Sam BURMAN KTM - TeamWNT / Burman Racing 11 15:43.036 44.037 12.518 98.93 1:24.138 6

21 26 S 7 Scott OGDEN Honda NSF - Cresswell Racing 11 15:43.185 44.186 0.149 98.91 1:24.494 10

22 95 S 8 Ross TURNER Honda NSF - RedRat Racing 11 15:43.284 44.285 0.099 98.90 1:24.020 5

23 72 S 9 Cameron HORSMAN Honda NSF - Nova / FAB Racing 11 15:45.257 46.258 1.973 98.70 1:24.550 6

24 45 S 10 Scott SWANN Honda NSF - Swann Racing 11 16:01.994 1:02.995 16.737 96.98 1:26.278 7

25 13 S 11 Jacob CLARK Honda NSF - Wilson Racing 11 16:02.221 1:03.222 0.227 96.96 1:25.814 2

26 48 S 12 Ewan POTTER Honda NSF - 11 16:18.792 1:19.793 16.571 95.31 1:27.246 2

NOT CLASSIFIED

DNF 15 Eugene McMANUS KTM - RS Racing / E15 Racing 10 13:38.828 1 Lap 1 Lap 103.58 1:21.023 7

DNF 44 Edmund BEST KTM - SymCirrus Motorsport 10 13:50.295 1 Lap 11.467 102.15 1:21.573 6

DNF 24 S Shane FABER Honda NSF - SymCirrus Motorsport / Shane Faber R 5 7:29.966 6 Laps 5 Laps 94.24 1:27.280 2

DNF 20 Joel MARKLUND KTM - Marklund Solutions / SP125 4 5:39.218 7 Laps 1 Lap 100.01 1:22.959 4

Ducati TriOptions Cup - race - conditions dry

1 10 1 Sean NEARY Ducati - Zoek Racing Team 8 10:43.331 105.47 1:19.341 3

2 57 2 Levi DAY Ducati - Boast Plumbing 8 10:43.482 0.151 0.151 105.44 1:19.530 2

3 4 * 3 Joe COLLIER Ducati - Boast Plumbing 8 10:43.607 0.276 0.125 105.42 1:19.312 2

4 2 4 Jonathan RAILTON Ducati - Boast Plumbing 8 10:44.626 1.295 1.019 105.25 1:19.241 2

5 7 5 Phil ATKINSON Ducati - Highsparks Motorsport 8 10:45.467 2.136 0.841 105.12 1:19.748 3

6 8 6 Scott PITCHERS Ducati - Saul Bros Racing 8 10:47.948 4.617 2.481 104.71 1:19.944 4

7 21 7 Mark CHEETHAM Ducati - Highsparks Motorsport 8 10:48.022 4.691 0.074 104.70 1:19.472 2

8 27 899 1 Taryn SKINNER Ducati - Highsparks Motorsport 8 10:56.428 13.097 8.406 103.36 1:21.059 8

9 5 899 2 Sam MIDDLEMAS Ducati - Salus / Albany 8 10:56.685 13.354 0.257 103.32 1:21.002 2

10 86 8 David SHOUBRIDGE Ducati - 8 10:56.924 13.593 0.239 103.28 1:21.077 4

11 41 9 David FERNS Ducati - Team DFR 8 11:00.065 16.734 3.141 102.79 1:21.055 3

12 9 899 3 Jordon GILL Ducati - Highsparks Motorsport 8 11:10.196 26.865 10.131 101.24 1:22.337 5

13 91 899 4 Paul SLADE Ducati - PPR 8 11:11.193 27.862 0.997 101.09 1:22.680 3

14 64 10 Michael TUSTIN Ducati - TeamMTR 8 11:11.630 28.299 0.437 101.02 1:22.384 7

15 49 11 Thomas RAWSTHORNE Ducati - JWF Motorsport 8 11:11.665 28.334 0.035 101.02 1:22.621 7

16 15 12 Jon WAGHORN Ducati - JW Smart Services Ltd / Laguna Motorcycle 8 11:12.197 28.866 0.532 100.94 1:22.596 8

17 33 13 Daniel SHAW Ducati - FML Motorsport 8 11:17.849 34.518 5.652 100.10 1:23.401 3

18 48 14 Nicky WILSON Ducati - Nicky Wilson Racing 8 11:20.352 37.021 2.503 99.73 1:23.644 3

19 22 899 5 Dave MACKAY Ducati - True Heroes Racing / Laguna 8 11:20.997 37.666 0.645 99.63 1:23.523 3

20 78 899 6 Joe CONNOLLY Ducati - Team urbanvapor.co.uk 8 11:21.735 38.404 0.738 99.52 1:24.217 2

21 66 15 Dave GREGORY Ducati - Century Bulldog 8 11:34.569 51.238 12.834 97.69 1:24.618 8

22 6 16 Peter HASLER Ducati - AOR / YESSS Electrical Racing 8 11:35.702 52.371 1.133 97.53 1:25.913 3

23 69 17 Danny HUSKINSON Ducati - AOR / YESSS Electrical Racing 8 11:35.923 52.592 0.221 97.50 1:24.660 8

24 59 18 Chris RICHARDSON Ducati - Silly Racing 8 11:36.047 52.716 0.124 97.48 1:25.134 8

25 50 899 7 Matt STEVENS Ducati - Tech 5 Racing 8 11:36.584 53.253 0.537 97.40 1:25.321 3

26 17 899 8 Ieva BAUBLYTE Ducati - AOR / YESSS Electrical Racing 8 11:38.048 54.717 1.464 97.20 1:25.573 6

27 32 19 Matt COLES Ducati - 8 11:41.440 58.109 3.392 96.73 1:25.666 3

28 99 20 Martin THROWER Ducati - PDQ Precision Racing 8 11:46.213 1:02.882 4.773 96.07 1:25.390 3

29 98 21 Keith JAGGARD Ducati - Total Plant Ducati 8 11:58.017 1:14.686 11.804 94.50 1:27.950 3

30 85 899 9 Richard ROONEY Ducati - All Over It 8 11:58.271 1:14.940 0.254 94.46 1:27.196 6

NOT CLASSIFIED

DNF 76 899 Dan BARFOOT Ducati - True Heroes Racing / Laguna 0

Share this story:

Add your comment